Time;durP1;ratioP1;P1;durP2;ratioP2;P2;SDS_P1;SDS_P2;PMS_P1;PMS_P2;Temp;Humidity;BMP_temperature;BMP_pressure;BME280_temperature;BME280_humidity;BME280_pressure;Samples;Min_cycle;Max_cycle;Signal;HPM_P1;HPM_P2
2022/10/15 00:03:08;;;;;;;5.50;2.53;;;;;;;15.32;100.00;98968.13;12211271;19;20010;-87
2022/10/15 00:07:10;;;;;;;3.90;2.53;;;;;;;15.30;100.00;98972.34;12211896;19;20007;-87
2022/10/15 00:11:17;;;;;;;3.92;2.25;;;;;;;15.33;100.00;98963.41;12198662;19;20515;-87
2022/10/15 00:15:19;;;;;;;3.92;1.95;;;;;;;15.29;100.00;98965.97;12223074;19;20468;-87
2022/10/15 00:19:20;;;;;;;4.65;2.53;;;;;;;15.31;100.00;98976.75;12193479;19;20029;-87
2022/10/15 00:23:22;;;;;;;3.58;2.15;;;;;;;15.31;100.00;98972.00;12207664;19;20018;-86
2022/10/15 00:27:24;;;;;;;3.28;1.90;;;;;;;15.28;100.00;98969.84;12214684;19;20039;-86
2022/10/15 00:31:28;;;;;;;3.60;1.88;;;;;;;15.33;100.00;98968.94;12191836;19;20379;-86
2022/10/15 00:35:30;;;;;;;4.57;2.00;;;;;;;15.36;100.00;98969.16;12213174;19;20074;-86
2022/10/15 00:39:32;;;;;;;5.15;2.10;;;;;;;15.40;100.00;98975.75;12213270;19;20468;-85
2022/10/15 00:43:35;;;;;;;3.85;1.70;;;;;;;15.39;100.00;98968.56;12189896;19;20002;-85
2022/10/15 00:47:56;;;;;;;3.35;1.70;;;;;;;15.40;100.00;98956.31;12211056;19;20472;-86
2022/10/15 00:52:09;;;;;;;3.28;2.00;;;;;;;15.40;100.00;98958.28;12212071;19;20014;-82
2022/10/15 00:56:12;;;;;;;8.52;2.53;;;;;;;15.38;100.00;98952.22;12188755;19;20086;-85
2022/10/15 01:00:15;;;;;;;3.38;2.33;;;;;;;15.39;100.00;98949.13;12213367;19;20030;-86
2022/10/15 01:04:17;;;;;;;;;;;;;;;15.41;100.00;98955.22;12214641;19;20017;-86
2022/10/15 01:08:28;;;;;;;5.88;3.13;;;;;;;15.45;100.00;98944.31;12186346;19;19918;-86
2022/10/15 01:12:44;;;;;;;8.38;3.85;;;;;;;15.42;100.00;98945.75;12211004;19;20899;-88
2022/10/15 01:17:12;;;;;;;12.55;4.15;;;;;;;15.47;100.00;98942.06;12191656;19;20014;-85
2022/10/15 01:21:48;;;;;;;9.40;4.15;;;;;;;15.48;100.00;98938.97;12215170;19;20015;-84
2022/10/15 01:26:18;;;;;;;11.50;5.35;;;;;;;15.48;100.00;98941.75;12192710;19;20418;-86
2022/10/15 01:30:37;;;;;;;10.02;5.63;;;;;;;15.49;100.00;98950.91;12217350;19;20526;-87
2022/10/15 01:35:17;;;;;;;14.10;6.15;;;;;;;15.51;100.00;98945.88;12193627;19;20054;-88
2022/10/15 01:39:30;;;;;;;12.18;6.30;;;;;;;15.51;100.00;98945.88;12213046;19;20033;-86
2022/10/15 01:44:26;;;;;;;13.38;6.28;;;;;;;15.54;100.00;98936.13;12189070;19;20532;-87
2022/10/15 01:48:53;;;;;;;12.07;5.97;;;;;;;15.55;100.00;98937.75;12208421;19;20480;-86
2022/10/15 01:52:55;;;;;;;11.77;6.50;;;;;;;15.56;100.00;98951.34;12186208;19;20660;-85
2022/10/15 01:56:58;;;;;;;14.75;6.20;;;;;;;15.58;100.00;98931.59;12211015;19;20579;-84
2022/10/15 02:01:00;;;;;;;12.32;6.57;;;;;;;15.55;100.00;98924.69;12213059;19;20520;-86
2022/10/15 02:05:05;;;;;;;14.83;6.63;;;;;;;15.55;100.00;98918.31;12187373;19;20631;-84
2022/10/15 02:09:15;;;;;;;17.95;7.65;;;;;;;15.56;100.00;98925.56;12209114;19;20247;-85
2022/10/15 02:13:24;;;;;;;15.75;7.68;;;;;;;15.58;100.00;98926.03;12207197;19;20606;-86
2022/10/15 02:17:39;;;;;;;16.92;8.13;;;;;;;15.59;100.00;98927.72;12186043;19;20031;-86
2022/10/15 02:21:48;;;;;;;19.08;8.45;;;;;;;15.56;100.00;98937.47;12208605;19;20382;-86
2022/10/15 02:25:52;;;;;;;21.83;10.02;;;;;;;15.56;100.00;98936.66;12186064;19;20011;-85
2022/10/15 02:29:56;;;;;;;22.05;9.70;;;;;;;15.55;100.00;98933.03;12209025;19;20022;-86
2022/10/15 02:34:05;;;;;;;21.73;10.23;;;;;;;15.55;100.00;98938.59;12204291;19;20038;-85
2022/10/15 02:38:14;;;;;;;23.30;10.57;;;;;;;15.60;100.00;98924.63;12197983;19;20018;-85
2022/10/15 02:42:17;;;;;;;22.95;10.32;;;;;;;15.62;100.00;98925.16;12219425;19;20006;-86
2022/10/15 02:46:21;;;;;;;25.25;9.63;;;;;;;15.65;100.00;98937.59;12197005;19;20058;-86
2022/10/15 02:50:23;;;;;;;24.85;10.73;;;;;;;15.62;100.00;98927.09;12218626;19;20010;-85
2022/10/15 02:54:25;;;;;;;33.22;12.15;;;;;;;15.60;100.00;98924.63;12217926;19;20019;-87
2022/10/15 02:58:28;;;;;;;26.25;11.52;;;;;;;15.60;100.00;98930.16;12198315;19;20011;-86
2022/10/15 03:02:29;;;;;;;42.85;12.82;;;;;;;15.62;100.00;98938.22;12226915;19;20059;-87
2022/10/15 03:06:31;;;;;;;44.42;13.93;;;;;;;15.65;100.00;98948.72;12280432;19;20007;-86
2022/10/15 03:10:33;;;;;;;44.60;15.77;;;;;;;15.64;100.00;98942.31;12251028;19;20022;-87
2022/10/15 03:14:35;;;;;;;45.97;15.75;;;;;;;15.66;100.00;98944.78;12215900;19;20007;-87
2022/10/15 03:18:37;;;;;;;52.50;15.83;;;;;;;15.68;100.00;98937.03;12215857;19;20011;-87
2022/10/15 03:22:43;;;;;;;47.42;15.65;;;;;;;15.69;100.00;98936.69;12193240;19;20006;-88
2022/10/15 03:26:44;;;;;;;50.50;17.27;;;;;;;15.70;100.00;98929.19;12218249;19;20137;-88
2022/10/15 03:30:47;;;;;;;42.47;16.60;;;;;;;15.69;100.00;98935.88;12216796;19;20023;-88
2022/10/15 03:34:52;;;;;;;54.10;17.75;;;;;;;15.66;100.00;98961.47;12194445;19;20014;-88
2022/10/15 03:39:04;;;;;;;126.55;24.48;;;;;;;15.66;100.00;98953.13;12218661;19;20010;-88
2022/10/15 03:43:17;;;;;;;44.75;16.30;;;;;;;15.71;100.00;98947.53;12221195;19;20007;-87
2022/10/15 03:47:19;;;;;;;75.30;20.27;;;;;;;15.70;100.00;98962.53;12199984;19;20017;-87
2022/10/15 03:51:22;;;;;;;49.10;17.27;;;;;;;15.71;100.00;98958.63;12222660;19;20006;-86
2022/10/15 03:55:35;;;;;;;96.07;21.25;;;;;;;15.70;100.00;98959.75;12260984;19;20010;-90
2022/10/15 03:59:37;;;;;;;154.63;22.10;;;;;;;15.72;100.00;98966.66;12283278;19;20011;-90
2022/10/15 04:03:41;;;;;;;68.85;18.17;;;;;;;15.69;100.00;98961.69;12254884;19;20011;-87
2022/10/15 04:07:43;;;;;;;53.53;16.92;;;;;;;15.71;100.00;98964.19;12197884;19;20011;-87
2022/10/15 04:11:48;;;;;;;51.90;17.13;;;;;;;15.73;100.00;98967.47;12214624;19;20006;-88
2022/10/15 04:15:51;;;;;;;85.18;18.65;;;;;;;15.76;100.00;98972.41;12214669;19;20007;-87
2022/10/15 04:20:00;;;;;;;73.83;19.10;;;;;;;15.76;100.00;98980.75;12196182;19;20034;-87
2022/10/15 04:24:16;;;;;;;58.83;18.27;;;;;;;15.77;100.00;98982.41;12237699;19;20010;-88
2022/10/15 04:34:17;;;;;;;88.63;21.42;;;;;;;15.78;100.00;98988.78;12003985;19;2004524;-88
2022/10/15 04:39:14;;;;;;;62.60;18.08;;;;;;;15.78;100.00;99003.50;12188855;19;20007;-90
2022/10/15 04:44:25;;;;;;;;;;;;;;;;;;;;;
2022/10/15 04:48:36;;;;;;;53.22;15.25;;;;;;;15.78;100.00;98999.91;12209043;19;20345;-88
2022/10/15 04:52:45;;;;;;;113.97;22.90;;;;;;;15.78;100.00;98995.16;12182816;19;20062;-86
2022/10/15 04:56:47;;;;;;;57.60;14.67;;;;;;;15.76;100.00;99002.97;12207579;19;20467;-86
2022/10/15 05:00:48;;;;;;;39.97;13.35;;;;;;;15.77;100.00;99004.63;12206798;19;20009;-86
2022/10/15 05:05:04;;;;;;;40.80;12.82;;;;;;;15.78;100.00;98997.13;12189997;19;20081;-85
2022/10/15 05:09:06;;;;;;;44.13;13.57;;;;;;;15.76;100.00;99007.69;12217389;19;20503;-87
2022/10/15 05:13:09;;;;;;;45.75;12.40;;;;;;;15.75;100.00;99009.66;12214506;19;20007;-87
2022/10/15 05:17:12;;;;;;;36.30;11.63;;;;;;;15.76;100.00;99010.47;12190649;19;20369;-87
2022/10/15 05:21:17;;;;;;;39.65;11.68;;;;;;;15.75;100.00;99011.63;12211294;19;19998;-87
2022/10/15 05:25:21;;;;;;;35.58;11.80;;;;;;;15.74;100.00;99013.56;12208687;19;20093;-87
2022/10/15 05:29:23;;;;;;;42.53;11.82;;;;;;;15.75;100.00;99019.94;12215920;19;20524;-87
2022/10/15 05:33:38;;;;;;;37.33;12.23;;;;;;;15.74;100.00;99032.19;12210725;19;20010;-87
2022/10/15 05:37:44;;;;;;;45.25;12.15;;;;;;;15.73;100.00;99028.56;12190000;19;20817;-88
2022/10/15 05:41:48;;;;;;;44.35;12.63;;;;;;;15.72;100.00;99022.19;12210586;19;20007;-89
2022/10/15 06:00:15;;;;;;;52.50;15.05;;;;;;;15.74;100.00;99071.91;12248273;19;20002;-88
2022/10/15 06:04:26;;;;;;;55.63;16.13;;;;;;;15.76;100.00;99071.59;12185150;19;20026;-87
2022/10/15 06:08:38;;;;;;;45.20;14.68;;;;;;;15.80;100.00;99078.22;12209951;19;20921;-88
2022/10/15 06:23:01;;;;;;;55.05;15.18;;;;;;;15.84;100.00;99102.28;12199765;19;20013;-88
2022/10/15 06:39:09;;;;;;;53.25;15.45;;;;;;;15.87;100.00;99098.91;12079093;19;2020520;-86
2022/10/15 06:54:32;;;;;;;32.97;12.70;;;;;;;16.00;100.00;99111.19;12206196;19;20003;-88
2022/10/15 06:59:01;;;;;;;36.97;12.32;;;;;;;16.02;100.00;99124.78;12224301;19;20015;-87
2022/10/15 07:03:47;;;;;;;31.83;12.10;;;;;;;16.01;100.00;99118.41;12241417;19;20467;-89
2022/10/15 07:08:01;;;;;;;31.35;11.00;;;;;;;16.02;100.00;99119.25;12187551;19;20015;-86
2022/10/15 07:12:04;;;;;;;26.67;11.40;;;;;;;16.02;100.00;99130.34;12206400;19;20031;-86
2022/10/15 07:16:12;;;;;;;;;;;;;;;16.06;100.00;99131.38;12204306;19;20042;-87
2022/10/15 07:20:19;;;;;;;25.40;9.00;;;;;;;16.11;100.00;99137.69;12184640;19;19910;-87
2022/10/15 07:24:24;;;;;;;27.40;9.13;;;;;;;16.24;100.00;99138.91;12210311;19;20050;-87
2022/10/15 07:28:31;;;;;;;19.07;7.40;;;;;;;16.33;100.00;99142.63;12195374;19;20002;-86
2022/10/15 07:32:35;;;;;;;25.63;7.47;;;;;;;16.41;100.00;99164.16;12215931;19;20090;-84
2022/10/15 07:36:38;;;;;;;15.60;6.53;;;;;;;16.51;100.00;99165.09;12213703;19;20028;-85
2022/10/15 07:40:40;;;;;;;14.15;5.70;;;;;;;16.64;100.00;99173.50;12195295;19;20070;-85
2022/10/15 07:44:42;;;;;;;11.43;4.47;;;;;;;16.75;100.00;99170.53;12215633;19;20038;-85
2022/10/15 07:48:43;;;;;;;8.95;4.10;;;;;;;16.92;100.00;99153.25;12212072;19;20015;-86
2022/10/15 07:52:45;;;;;;;10.02;3.58;;;;;;;17.05;100.00;99161.63;12165567;19;20038;-85
2022/10/15 07:56:47;;;;;;;6.73;2.80;;;;;;;17.06;100.00;99162.44;12222059;19;20074;-85
2022/10/15 08:00:50;;;;;;;5.15;3.15;;;;;;;17.01;100.00;99179.25;12218250;19;20649;-85
2022/10/15 08:04:52;;;;;;;3.55;2.33;;;;;;;17.01;100.00;99184.81;12195403;19;20012;-84
2022/10/15 08:08:53;;;;;;;4.28;2.28;;;;;;;17.10;100.00;99188.53;12220360;19;20034;-82
2022/10/15 08:12:55;;;;;;;7.30;2.50;;;;;;;17.29;100.00;99186.47;12217570;19;20039;-83
2022/10/15 08:16:57;;;;;;;4.07;1.85;;;;;;;17.48;100.00;99191.13;12194432;19;20010;-84
2022/10/15 08:21:07;;;;;;;5.38;2.50;;;;;;;17.87;100.00;99186.94;12253384;19;20010;-84
2022/10/15 08:25:24;;;;;;;4.25;2.22;;;;;;;18.08;100.00;99193.69;12279185;19;20034;-84
2022/10/15 08:30:02;;;;;;;4.90;2.08;;;;;;;18.07;100.00;99185.66;12224562;19;20015;-84
2022/10/15 08:39:29;;;;;;;4.65;2.08;;;;;;;17.99;100.00;99184.44;12114147;19;2004227;-83
2022/10/15 08:43:41;;;;;;;6.78;2.50;;;;;;;17.93;100.00;99192.09;12192344;19;20018;-83
2022/10/15 08:48:02;;;;;;;3.60;2.20;;;;;;;17.95;100.00;99194.56;12219247;19;20042;-83
2022/10/15 08:57:48;;;;;;;4.70;2.00;;;;;;;17.79;100.00;99209.97;12116941;19;2004242;-84
2022/10/15 09:02:19;;;;;;;4.07;2.00;;;;;;;17.82;100.00;99203.78;12193501;19;20011;-84
2022/10/15 09:06:29;;;;;;;4.88;2.92;;;;;;;17.85;100.00;99197.59;12217751;19;20014;-84
2022/10/15 09:10:34;;;;;;;5.47;2.30;;;;;;;17.94;100.00;99209.66;12197820;19;20027;-82
2022/10/15 09:14:40;;;;;;;11.18;3.22;;;;;;;18.05;100.00;99213.84;12213058;19;20011;-82
2022/10/15 09:18:45;;;;;;;5.30;2.42;;;;;;;18.21;100.00;99214.34;12216023;19;20002;-83
2022/10/15 09:22:50;;;;;;;4.60;2.92;;;;;;;18.18;100.00;99215.78;12195741;19;20356;-82
2022/10/15 09:27:06;;;;;;;4.43;2.60;;;;;;;18.05;100.00;99207.44;12220208;19;20026;-81
2022/10/15 09:31:12;;;;;;;5.32;2.40;;;;;;;18.04;100.00;99206.63;12215328;19;20018;-82
2022/10/15 09:35:19;;;;;;;5.90;2.13;;;;;;;18.05;100.00;99208.28;12189638;19;20039;-83
2022/10/15 09:39:32;;;;;;;2.88;1.83;;;;;;;18.06;100.00;99211.91;12214846;19;20010;-83
2022/10/15 09:43:39;;;;;;;6.60;2.83;;;;;;;18.11;100.00;99212.59;12189290;19;20002;-81
2022/10/15 09:47:43;;;;;;;4.95;2.03;;;;;;;18.13;100.00;99221.47;12212827;19;20503;-81
2022/10/15 09:52:08;;;;;;;3.20;1.80;;;;;;;18.17;100.00;99214.16;12207860;19;20011;-81
2022/10/15 09:56:17;;;;;;;4.10;1.65;;;;;;;18.26;100.00;99203.03;12193447;19;20593;-81
2022/10/15 10:00:19;;;;;;;4.70;1.42;;;;;;;18.19;100.00;99209.06;12215439;19;20022;-83
2022/10/15 10:04:21;;;;;;;3.63;1.73;;;;;;;18.09;100.00;99216.84;12208531;19;20006;-81
2022/10/15 10:08:33;;;;;;;3.97;3.03;;;;;;;18.09;100.00;99216.84;12189022;19;20030;-80
2022/10/15 10:12:36;;;;;;;3.80;3.10;;;;;;;17.95;100.00;99226.06;12208729;19;20034;-81
2022/10/15 10:17:15;;;;;;;3.97;3.03;;;;;;;17.72;100.00;99229.88;12188947;19;20014;-81
2022/10/15 10:21:27;;;;;;;4.43;3.20;;;;;;;17.54;100.00;99232.47;12211852;19;20063;-81
2022/10/15 10:25:32;;;;;;;5.10;2.55;;;;;;;17.52;100.00;99233.94;12191038;19;20011;-80
2022/10/15 10:29:41;;;;;;;5.40;3.90;;;;;;;17.50;100.00;99237.03;12214069;19;20021;-80
2022/10/15 10:33:49;;;;;;;5.85;4.07;;;;;;;17.49;100.00;99235.38;12209291;19;20006;-82
2022/10/15 10:37:51;;;;;;;6.20;4.90;;;;;;;17.44;100.00;99237.44;12188387;19;20010;-81
2022/10/15 10:42:03;;;;;;;7.18;5.88;;;;;;;17.48;100.00;99233.72;12210509;19;20018;-82
2022/10/15 10:46:16;;;;;;;8.02;4.38;;;;;;;17.49;100.00;99234.53;12209300;19;20010;-81
2022/10/15 10:50:29;;;;;;;5.18;4.30;;;;;;;17.57;100.00;99233.81;12184912;19;20035;-82
2022/10/15 10:54:32;;;;;;;5.63;4.28;;;;;;;17.71;100.00;99231.84;12203841;19;20057;-81
2022/10/15 10:58:34;;;;;;;4.50;3.38;;;;;;;17.92;100.00;99220.28;12190168;19;20011;-84
2022/10/15 11:02:39;;;;;;;6.45;3.20;;;;;;;18.28;100.00;99225.88;12218261;19;20034;-81
2022/10/15 11:06:44;;;;;;;3.33;2.88;;;;;;;18.47;100.00;99227.66;12214145;19;20002;-82
2022/10/15 11:10:58;;;;;;;5.63;3.15;;;;;;;18.74;100.00;99209.97;12220906;19;20009;-78
2022/10/15 11:15:34;;;;;;;3.70;2.80;;;;;;;19.20;100.00;99212.38;12268458;19;20007;-80
2022/10/15 11:20:07;;;;;;;5.35;3.00;;;;;;;19.46;100.00;99211.66;12240287;19;20043;-83
2022/10/15 11:24:32;;;;;;;;;;;;;;;19.34;100.00;99212.28;12224867;19;20029;-83
2022/10/15 11:29:25;;;;;;;4.40;2.38;;;;;;;19.29;100.00;99201.25;12201504;19;19932;-80
2022/10/15 11:33:42;;;;;;;2.42;2.15;;;;;;;19.13;100.00;99198.06;12220427;19;20817;-80
2022/10/15 11:38:04;;;;;;;2.70;1.40;;;;;;;19.00;100.00;99191.41;12197795;19;20079;-82
2022/10/15 11:42:23;;;;;;;2.42;1.52;;;;;;;18.92;100.00;99186.63;12219350;19;20010;-82
2022/10/15 11:46:54;;;;;;;3.92;1.52;;;;;;;19.00;100.00;99185.00;12196721;19;20007;-79
2022/10/15 11:51:02;;;;;;;3.25;1.58;;;;;;;18.96;100.00;99176.44;12219469;19;20026;-81
2022/10/15 11:55:43;;;;;;;2.45;0.93;;;;;;;18.82;100.00;99176.53;12217718;19;20011;-81
2022/10/15 12:00:23;;;;;;;1.10;0.90;;;;;;;18.87;100.00;99178.38;12204136;19;20471;-81
2022/10/15 12:04:46;;;;;;;2.97;1.25;;;;;;;19.14;100.00;99171.78;12200776;19;20006;-81
2022/10/15 12:08:49;;;;;;;;;;;;;;;19.56;100.00;99175.03;12232434;19;20425;-81
2022/10/15 12:13:07;;;;;;;4.97;1.05;;;;;;;19.59;100.00;99166.00;12234485;19;19944;-81
2022/10/15 12:17:40;;;;;;;2.53;0.90;;;;;;;19.42;100.00;99163.16;12199733;19;20031;-80
2022/10/15 12:21:48;;;;;;;3.07;1.00;;;;;;;19.48;100.00;99153.47;12212280;19;20010;-80
2022/10/15 12:25:49;;;;;;;3.50;1.10;;;;;;;19.47;100.00;99154.63;12194871;19;20045;-81
2022/10/15 12:30:11;;;;;;;4.53;1.37;;;;;;;19.16;100.00;99141.56;12216301;19;20033;-80
2022/10/15 12:34:31;;;;;;;5.93;2.25;;;;;;;19.00;100.00;99151.50;12213199;19;20014;-80
2022/10/15 12:38:36;;;;;;;2.83;1.08;;;;;;;18.93;100.00;99146.38;12191869;19;20054;-80
2022/10/15 12:42:39;;;;;;;2.50;1.10;;;;;;;18.77;100.00;99136.78;12213573;19;20094;-82
2022/10/15 12:46:41;;;;;;;3.00;1.00;;;;;;;18.64;100.00;99125.34;12191651;19;20373;-80
2022/10/15 12:50:43;;;;;;;1.90;0.80;;;;;;;18.63;100.00;99134.06;12215289;19;20063;-80
2022/10/15 12:54:45;;;;;;;2.03;0.95;;;;;;;18.67;100.00;99123.88;12214261;19;20091;-79
2022/10/15 12:58:55;;;;;;;2.42;1.25;;;;;;;18.62;100.00;99116.50;12192775;19;20014;-80
2022/10/15 13:03:09;;;;;;;4.15;2.17;;;;;;;18.55;100.00;99112.50;12214280;19;20018;-80
2022/10/15 13:07:13;;;;;;;3.00;1.10;;;;;;;18.61;100.00;99120.41;12211517;19;20031;-80
2022/10/15 13:11:20;;;;;;;4.97;1.17;;;;;;;18.64;100.00;99113.38;12194993;19;20010;-79
2022/10/15 13:15:25;;;;;;;3.25;0.93;;;;;;;18.56;100.00;99116.94;12214514;19;20030;-79
2022/10/15 13:19:46;;;;;;;3.40;0.90;;;;;;;18.64;100.00;99116.97;12196966;19;20003;-80
2022/10/15 13:23:49;;;;;;;2.42;0.85;;;;;;;18.61;100.00;99109.25;12224029;19;20019;-81
2022/10/15 13:27:51;;;;;;;2.97;1.00;;;;;;;18.66;100.00;99113.88;12227267;19;20063;-80
2022/10/15 13:31:55;;;;;;;4.00;0.82;;;;;;;18.59;100.00;99122.72;12196291;19;20011;-79
2022/10/15 13:36:07;;;;;;;1.48;0.80;;;;;;;18.51;100.00;99128.25;12213370;19;20007;-81
2022/10/15 13:40:28;;;;;;;2.47;1.00;;;;;;;18.35;100.00;99116.66;12223497;19;20089;-79
2022/10/15 13:44:30;;;;;;;1.85;1.08;;;;;;;18.24;100.00;99120.84;12236676;19;20015;-79
2022/10/15 13:48:31;;;;;;;4.43;1.35;;;;;;;18.19;100.00;99125.41;12238394;19;20014;-80
2022/10/15 13:52:51;;;;;;;7.40;1.33;;;;;;;18.19;100.00;99128.19;12197030;19;20392;-80
2022/10/15 13:57:00;;;;;;;2.10;1.00;;;;;;;18.03;100.00;99137.28;12221523;19;20014;-80
2022/10/15 14:01:07;;;;;;;2.70;1.20;;;;;;;17.94;100.00;99145.56;12224556;19;20086;-80
2022/10/15 14:05:15;;;;;;;2.17;1.20;;;;;;;17.92;100.00;99145.03;12199527;19;20075;-80
2022/10/15 14:09:25;;;;;;;4.90;1.10;;;;;;;17.89;100.00;99142.88;12213153;19;20086;-81
2022/10/15 14:13:27;;;;;;;6.03;1.30;;;;;;;17.90;100.00;99142.56;12186810;19;20110;-80
2022/10/15 14:17:29;;;;;;;1.53;1.10;;;;;;;17.75;100.00;99146.47;12210958;19;20043;-82
2022/10/15 14:21:32;;;;;;;2.42;0.98;;;;;;;17.80;100.00;99139.19;12209132;19;20011;-79
2022/10/15 14:25:36;;;;;;;2.72;0.85;;;;;;;17.80;100.00;99140.00;12190801;19;20464;-79
2022/10/15 14:29:45;;;;;;;2.38;1.00;;;;;;;17.68;100.00;99146.09;12214192;19;20074;-80
2022/10/15 14:33:47;;;;;;;6.80;1.17;;;;;;;17.74;100.00;99153.22;12225141;19;20034;-80
2022/10/15 14:38:01;;;;;;;6.82;1.00;;;;;;;17.67;100.00;99141.69;12201302;19;20022;-79
2022/10/15 14:42:05;;;;;;;3.70;1.08;;;;;;;17.73;100.00;99134.03;12221682;19;20224;-79
2022/10/15 14:46:16;;;;;;;2.58;0.82;;;;;;;17.75;100.00;99142.88;12228786;19;20003;-79
2022/10/15 14:50:22;;;;;;;1.35;0.80;;;;;;;17.77;100.00;99143.41;12202788;19;20082;-79
2022/10/15 14:54:35;;;;;;;2.83;1.13;;;;;;;17.77;100.00;99147.03;12222175;19;20014;-80
2022/10/15 14:58:37;;;;;;;1.80;0.85;;;;;;;17.88;100.00;99152.38;12200421;19;20011;-79
2022/10/15 15:02:39;;;;;;;2.67;1.17;;;;;;;17.92;100.00;99148.63;12221481;19;20014;-80
2022/10/15 15:06:41;;;;;;;12.27;1.20;;;;;;;17.92;100.00;99136.69;12221734;19;20047;-80
2022/10/15 15:10:44;;;;;;;1.33;1.00;;;;;;;17.85;100.00;99141.88;12199529;19;20337;-80
2022/10/15 15:14:46;;;;;;;2.55;0.90;;;;;;;17.80;100.00;99153.94;12220388;19;20030;-80
2022/10/15 15:18:47;;;;;;;3.78;1.73;;;;;;;17.75;100.00;99154.84;12225101;19;20037;-80
2022/10/15 15:22:52;;;;;;;4.80;1.15;;;;;;;17.72;100.00;99155.47;12197927;19;20019;-80
2022/10/15 15:26:54;;;;;;;1.30;1.00;;;;;;;17.67;100.00;99158.41;12221790;19;20502;-80
2022/10/15 15:31:01;;;;;;;2.05;1.00;;;;;;;17.72;100.00;99147.09;12228457;19;20030;-80
2022/10/15 15:35:15;;;;;;;2.55;0.90;;;;;;;17.71;100.00;99142.69;12191123;19;20318;-82
2022/10/15 15:39:16;;;;;;;4.60;1.33;;;;;;;17.70;100.00;99145.81;12209959;19;20345;-81
2022/10/15 15:43:18;;;;;;;2.17;1.10;;;;;;;17.72;100.00;99152.69;12206821;19;20066;-80
2022/10/15 15:47:19;;;;;;;1.73;0.90;;;;;;;17.72;100.00;99163.81;12190771;19;19998;-80
2022/10/15 15:51:25;;;;;;;3.15;1.30;;;;;;;17.66;100.00;99162.28;12211149;19;20094;-80
2022/10/15 15:55:27;;;;;;;2.05;1.27;;;;;;;17.66;100.00;99156.72;12190494;19;20018;-81
2022/10/15 15:59:28;;;;;;;3.30;1.02;;;;;;;17.65;100.00;99159.84;12207843;19;20038;-80
2022/10/15 16:03:30;;;;;;;2.58;0.88;;;;;;;17.62;100.00;99168.81;12207589;19;20015;-81
2022/10/15 16:07:32;;;;;;;2.70;1.00;;;;;;;17.57;100.00;99164.16;12191176;19;20049;-79
2022/10/15 16:11:37;;;;;;;3.85;1.45;;;;;;;17.49;100.00;99167.69;12204125;19;20014;-80
2022/10/15 16:15:39;;;;;;;2.80;1.20;;;;;;;17.49;100.00;99176.88;12207980;19;20654;-80
2022/10/15 16:19:41;;;;;;;5.95;1.35;;;;;;;17.50;100.00;99191.63;12184532;19;20015;-80
2022/10/15 16:23:42;;;;;;;4.10;1.30;;;;;;;17.47;100.00;99193.06;12203627;19;20033;-80
2022/10/15 16:27:47;;;;;;;2.78;1.30;;;;;;;17.43;100.00;99197.63;12208008;19;20106;-79
2022/10/15 16:31:49;;;;;;;4.00;1.38;;;;;;;17.35;100.00;99189.19;12184471;19;20010;-79
2022/10/15 16:35:52;;;;;;;4.85;1.88;;;;;;;17.37;100.00;99201.66;12211113;19;20015;-81
2022/10/15 16:39:54;;;;;;;5.47;1.83;;;;;;;17.36;100.00;99208.34;12213695;19;20814;-81
2022/10/15 16:43:56;;;;;;;5.22;1.52;;;;;;;17.36;100.00;99216.69;12195102;19;20006;-81
2022/10/15 16:47:58;;;;;;;8.13;2.10;;;;;;;17.37;100.00;99214.72;12213882;19;20010;-81
2022/10/15 16:51:59;;;;;;;4.38;1.40;;;;;;;17.33;100.00;99217.31;12205946;19;20010;-81
2022/10/15 16:56:16;;;;;;;6.68;1.90;;;;;;;17.24;100.00;99220.00;12182407;19;20045;-80
2022/10/15 17:00:21;;;;;;;3.15;1.40;;;;;;;17.27;100.00;99226.91;12200975;19;20815;-80
2022/10/15 17:04:23;;;;;;;10.25;1.77;;;;;;;17.29;100.00;99225.47;12203295;19;20569;-79
2022/10/15 17:08:28;;;;;;;2.95;1.40;;;;;;;17.27;100.00;99227.72;12184735;19;20018;-81
2022/10/15 17:12:36;;;;;;;4.90;1.13;;;;;;;17.25;100.00;99235.59;12207487;19;20014;-80
2022/10/15 17:16:39;;;;;;;2.03;1.05;;;;;;;17.29;100.00;99231.03;12188226;19;20006;-80
2022/10/15 17:20:48;;;;;;;3.60;1.20;;;;;;;17.37;100.00;99237.00;12217375;19;20095;-81
2022/10/15 17:24:49;;;;;;;3.20;1.27;;;;;;;17.43;100.00;99247.75;12214343;19;20405;-80
2022/10/15 17:28:59;;;;;;;3.97;1.35;;;;;;;17.44;100.00;99251.38;12191743;19;20388;-81
2022/10/15 17:33:01;;;;;;;1.95;1.25;;;;;;;17.44;100.00;99254.97;12215233;19;20025;-80
2022/10/15 17:37:03;;;;;;;4.55;1.38;;;;;;;17.52;100.00;99250.66;12218579;19;20014;-80
2022/10/15 17:41:13;;;;;;;1.52;1.10;;;;;;;17.47;100.00;99246.00;12196371;19;20006;-79
2022/10/15 17:45:14;;;;;;;2.17;1.13;;;;;;;17.52;100.00;99261.81;12213649;19;20023;-79
2022/10/15 17:49:17;;;;;;;3.00;1.30;;;;;;;17.57;100.00;99270.03;12211888;19;20401;-80
2022/10/15 17:53:19;;;;;;;;;;;;;;;17.57;100.00;99267.25;12190604;19;20011;-81
2022/10/15 17:57:21;;;;;;;2.45;1.17;;;;;;;17.57;100.00;99267.25;12211976;19;19978;-81
2022/10/15 18:01:29;;;;;;;1.63;1.27;;;;;;;17.54;100.00;99270.66;12210205;19;20018;-79
2022/10/15 18:05:51;;;;;;;2.65;1.20;;;;;;;17.60;100.00;99286.13;12190297;19;20591;-80
2022/10/15 18:09:53;;;;;;;;;;;;;;;17.64;100.00;99287.19;12212592;19;20006;-80
2022/10/15 18:13:55;;;;;;;4.20;1.48;;;;;;;17.64;100.00;99275.19;12189159;19;20508;-82
2022/10/15 18:17:57;;;;;;;7.05;1.33;;;;;;;17.54;100.00;99287.38;12210831;19;20827;-80
2022/10/15 18:21:59;;;;;;;6.63;1.30;;;;;;;17.62;100.00;99288.63;12210502;19;20464;-80
2022/10/15 18:26:09;;;;;;;3.75;1.60;;;;;;;17.64;100.00;99291.91;12191650;19;20549;-80
2022/10/15 18:30:10;;;;;;;5.15;1.20;;;;;;;17.59;100.00;99284.47;12214234;19;20042;-80
2022/10/15 18:34:12;;;;;;;3.17;1.20;;;;;;;17.45;100.00;99300.34;12212671;19;20070;-80
2022/10/15 18:38:15;;;;;;;2.58;1.30;;;;;;;17.49;100.00;99304.16;12193400;19;20076;-80
2022/10/15 18:42:17;;;;;;;2.17;1.42;;;;;;;17.54;100.00;99306.88;12213668;19;20006;-80
2022/10/15 18:46:19;;;;;;;7.65;1.42;;;;;;;17.51;100.00;99324.19;12242218;19;20050;-79
2022/10/15 18:50:22;;;;;;;4.20;1.67;;;;;;;17.49;100.00;99324.53;12230102;19;20007;-80
2022/10/15 18:54:24;;;;;;;4.60;1.73;;;;;;;17.42;100.00;99317.69;12238604;19;20010;-80
2022/10/15 18:58:26;;;;;;;7.90;1.77;;;;;;;17.30;100.00;99310.66;12223397;19;20029;-80
2022/10/15 19:02:27;;;;;;;3.90;1.70;;;;;;;17.20;100.00;99310.03;12227201;19;20342;-79
2022/10/15 19:06:33;;;;;;;5.65;1.80;;;;;;;17.11;100.00;99312.69;12261829;19;20007;-79
2022/10/15 19:10:35;;;;;;;6.35;1.98;;;;;;;17.04;100.00;99301.09;12197648;19;20026;-81
2022/10/15 19:14:37;;;;;;;4.20;2.50;;;;;;;16.99;100.00;99304.81;12210190;19;20459;-80
2022/10/15 19:18:40;;;;;;;6.35;1.90;;;;;;;16.94;100.00;99302.09;12221809;19;20027;-80
2022/10/15 19:22:42;;;;;;;4.82;1.80;;;;;;;16.89;100.00;99320.84;12198157;19;20011;-80
2022/10/15 19:26:44;;;;;;;3.03;1.63;;;;;;;16.83;100.00;99317.31;12228914;19;20050;-82
2022/10/15 19:30:57;;;;;;;3.65;1.83;;;;;;;16.82;100.00;99319.28;12226142;19;20018;-80
2022/10/15 19:34:59;;;;;;;4.45;1.80;;;;;;;16.81;100.00;99314.84;12200818;19;20017;-80
2022/10/15 19:39:10;;;;;;;4.40;1.50;;;;;;;16.84;100.00;99316.22;12229107;19;20014;-80
2022/10/15 19:43:13;;;;;;;2.40;1.10;;;;;;;16.83;100.00;99320.91;12217962;19;20084;-80
2022/10/15 19:47:19;;;;;;;3.05;1.50;;;;;;;16.89;100.00;99331.97;12195746;19;20047;-80
2022/10/15 19:51:20;;;;;;;3.33;1.50;;;;;;;16.89;100.00;99332.78;12220267;19;20011;-80
2022/10/15 19:55:22;;;;;;;3.10;1.23;;;;;;;16.99;100.00;99349.34;12216408;19;20030;-80
2022/10/15 19:59:24;;;;;;;3.05;1.20;;;;;;;17.05;100.00;99355.66;12196162;19;20122;-82
2022/10/15 20:03:27;;;;;;;5.00;1.25;;;;;;;17.08;100.00;99355.88;12217424;19;20014;-80
2022/10/15 20:07:29;;;;;;;2.08;1.38;;;;;;;17.05;100.00;99364.84;12201005;19;20240;-80